createdAt,value
2023-03-23T15:58:48.041Z,16.55
2023-03-23T16:01:19.553Z,16.40
2023-03-23T16:04:12.180Z,16.29
2023-03-23T16:06:41.673Z,16.30
2023-03-23T16:09:18.608Z,16.37
2023-03-23T16:11:46.128Z,16.37
2023-03-23T16:14:20.770Z,16.33
2023-03-23T16:16:51.263Z,16.53
2023-03-23T16:19:24.693Z,16.65
2023-03-23T16:21:54.115Z,16.59
2023-03-23T16:24:21.509Z,16.46
2023-03-23T16:26:49.011Z,16.45
2023-03-23T16:29:33.939Z,16.42
2023-03-23T16:32:04.894Z,16.46
2023-03-23T16:34:34.032Z,16.66
2023-03-23T16:37:01.589Z,16.63
2023-03-23T16:39:28.865Z,16.48
2023-03-23T16:41:56.455Z,16.37
2023-03-23T16:44:23.812Z,16.24
2023-03-23T16:46:52.548Z,16.08
2023-03-23T16:49:21.232Z,16.02
2023-03-23T16:51:50.804Z,16.01
2023-03-23T16:54:18.207Z,15.96
2023-03-23T16:56:47.152Z,15.92
2023-03-23T16:59:15.085Z,15.78
2023-03-23T17:01:43.524Z,15.61
2023-03-23T17:04:11.999Z,15.61
2023-03-23T17:06:46.624Z,15.41
2023-03-23T17:09:14.376Z,15.22
2023-03-23T17:11:41.742Z,15.25
2023-03-23T17:14:09.319Z,15.34
2023-03-23T17:16:40.590Z,15.33
2023-03-23T17:19:08.501Z,15.18
2023-03-23T17:21:38.525Z,14.86
2023-03-23T17:24:06.367Z,14.55
2023-03-23T17:26:34.540Z,14.65
2023-03-23T17:29:04.404Z,14.62
2023-03-23T17:31:31.968Z,14.51
2023-03-23T17:34:01.299Z,14.45
2023-03-23T17:36:28.746Z,14.49
2023-03-23T17:38:56.494Z,14.52
2023-03-23T17:41:29.271Z,14.67
2023-03-23T17:43:56.978Z,14.50
2023-03-23T17:46:25.182Z,14.64
2023-03-23T17:48:53.716Z,14.41
2023-03-23T17:51:22.551Z,14.44
2023-03-23T17:53:50.987Z,14.07
2023-03-23T17:56:21.106Z,13.82
2023-03-23T17:58:48.955Z,13.68
2023-03-23T18:01:25.624Z,13.75
2023-03-23T18:03:53.967Z,13.70
2023-03-23T18:06:22.108Z,13.52
2023-03-23T18:08:51.193Z,13.67
2023-03-23T18:11:19.306Z,13.60
2023-03-23T18:13:53.532Z,13.75
2023-03-23T18:16:22.708Z,13.73
2023-03-23T18:18:50.670Z,13.64
2023-03-23T18:21:18.639Z,13.53
2023-03-23T18:23:58.300Z,13.23
2023-03-23T18:26:29.446Z,12.99
2023-03-23T18:28:57.750Z,12.91
2023-03-23T18:31:25.643Z,12.99
2023-03-23T18:33:56.720Z,12.84
2023-03-23T18:36:28.624Z,12.66
2023-03-23T18:38:58.190Z,12.86
2023-03-23T18:41:27.166Z,13.20
2023-03-23T18:43:57.104Z,13.16
2023-03-23T18:46:27.225Z,13.27
2023-03-23T18:48:56.682Z,13.13
2023-03-23T18:51:32.469Z,13.09
2023-03-23T18:54:00.723Z,13.10
2023-03-23T18:56:29.570Z,13.14
2023-03-23T18:58:57.987Z,13.01
2023-03-23T19:01:26.535Z,13.05
2023-03-23T19:03:54.801Z,13.25
2023-03-23T19:06:28.110Z,13.23
2023-03-23T19:08:56.504Z,13.05
2023-03-23T19:11:27.137Z,12.92
2023-03-23T19:16:31.848Z,12.86
2023-03-23T19:19:06.840Z,12.99
2023-03-23T19:21:37.593Z,12.91
2023-03-23T19:24:09.278Z,12.80
2023-03-23T19:26:46.753Z,12.67
2023-03-23T19:29:26.689Z,12.63
2023-03-23T19:31:59.084Z,12.62
2023-03-23T19:34:30.112Z,12.68
2023-03-23T19:37:05.552Z,12.64
2023-03-23T19:39:36.429Z,12.68
2023-03-23T19:42:07.831Z,12.71
2023-03-23T19:44:36.296Z,12.71
2023-03-23T19:47:05.815Z,12.96
2023-03-23T19:49:34.222Z,13.49
2023-03-23T19:52:06.393Z,13.53
2023-03-23T19:54:51.519Z,13.53
2023-03-23T19:57:21.771Z,13.39
2023-03-23T19:59:50.257Z,13.44
2023-03-23T20:02:19.311Z,13.25
2023-03-23T20:04:48.724Z,13.29
2023-03-23T20:07:17.273Z,13.51
2023-03-23T20:09:45.858Z,13.59
2023-03-23T20:12:21.217Z,13.89
2023-03-23T20:14:49.257Z,14.07
2023-03-23T20:17:18.775Z,14.24
2023-03-23T20:19:47.127Z,14.27
2023-03-23T20:22:15.408Z,14.34
2023-03-23T20:24:48.300Z,14.31
2023-03-23T20:27:17.734Z,14.28
2023-03-23T20:29:45.980Z,14.43
2023-03-23T20:32:14.556Z,14.36
2023-03-23T20:34:46.685Z,14.27
2023-03-23T20:37:17.864Z,14.25
2023-03-23T20:39:46.834Z,14.11
2023-03-23T20:42:15.319Z,14.29
2023-03-23T20:44:43.344Z,14.33
2023-03-23T20:47:12.935Z,14.37
2023-03-23T20:49:41.498Z,14.40
2023-03-23T20:52:12.508Z,14.58
2023-03-23T20:54:41.462Z,14.44
2023-03-23T20:57:14.061Z,14.45
2023-03-23T20:59:45.127Z,14.41
2023-03-23T21:02:16.512Z,14.32
2023-03-23T21:04:46.395Z,14.43
2023-03-23T21:07:17.265Z,14.39
2023-03-23T21:09:47.135Z,14.45
2023-03-23T21:12:15.083Z,14.48
2023-03-23T21:14:45.536Z,14.56
2023-03-23T21:17:14.677Z,14.60
2023-03-23T21:19:42.532Z,14.59
2023-03-23T21:22:14.977Z,14.55
2023-03-23T21:24:46.943Z,14.52
2023-03-23T21:27:14.793Z,14.46
2023-03-23T21:29:42.547Z,14.43
2023-03-23T21:32:10.230Z,14.40
2023-03-23T21:34:38.557Z,14.43
2023-03-23T21:37:06.030Z,14.32
2023-03-23T21:39:34.973Z,14.25
2023-03-23T21:42:04.986Z,14.25
2023-03-23T21:44:35.216Z,14.17
2023-03-23T21:47:03.528Z,14.23
2023-03-23T21:49:32.560Z,14.35
2023-03-23T21:52:00.357Z,14.33
2023-03-23T21:54:30.676Z,14.34
2023-03-23T21:57:01.795Z,14.33
2023-03-23T21:59:29.039Z,14.34
2023-03-23T22:01:58.565Z,14.33
2023-03-23T22:04:25.962Z,14.29
2023-03-23T22:06:53.330Z,14.30
2023-03-23T22:09:20.817Z,14.26
2023-03-23T22:11:48.268Z,14.39
2023-03-23T22:14:15.691Z,14.32
2023-03-23T22:16:43.263Z,14.25
2023-03-23T22:19:10.771Z,14.20
2023-03-23T22:21:38.343Z,14.19
2023-03-23T22:24:06.174Z,14.08
2023-03-23T22:26:33.925Z,14.15
2023-03-23T22:29:02.766Z,13.93
2023-03-23T22:31:34.646Z,13.94
2023-03-23T22:34:03.341Z,13.85
2023-03-23T22:36:31.229Z,13.90
2023-03-23T22:39:01.627Z,13.95
2023-03-23T22:41:38.630Z,13.93
2023-03-23T22:44:06.915Z,13.87
2023-03-23T22:46:34.339Z,13.84
2023-03-23T22:49:02.114Z,13.74
2023-03-23T22:51:29.821Z,13.73
2023-03-23T22:54:05.217Z,13.64
2023-03-23T22:56:33.187Z,13.63
2023-03-23T22:59:01.149Z,13.51
2023-03-23T23:01:29.093Z,13.57
2023-03-23T23:03:56.736Z,13.69
2023-03-23T23:06:25.325Z,13.80
2023-03-23T23:08:53.077Z,13.88
2023-03-23T23:11:23.359Z,13.97
2023-03-23T23:13:51.384Z,13.98
2023-03-23T23:16:19.738Z,13.85
2023-03-23T23:18:50.133Z,13.83
2023-03-23T23:21:24.413Z,13.68
2023-03-23T23:23:53.619Z,13.65
2023-03-23T23:26:20.991Z,13.66
2023-03-23T23:29:02.967Z,13.50
2023-03-23T23:31:32.921Z,13.53
2023-03-23T23:34:01.806Z,13.60
2023-03-23T23:36:32.219Z,13.51
2023-03-23T23:39:01.986Z,13.60
2023-03-23T23:41:30.588Z,13.50
2023-03-23T23:43:58.714Z,13.55
2023-03-23T23:46:26.998Z,13.47
2023-03-23T23:48:54.703Z,13.50
2023-03-23T23:51:22.004Z,13.60
2023-03-23T23:53:53.728Z,13.72
2023-03-23T23:56:22.654Z,13.69
2023-03-23T23:58:50.057Z,13.76
